^^
Grace C. Lehan Memorial Weather Station Historical Data
Daily Summary for April 23, 2021 Units:  Both    English   Metric
Daily Weekly Monthly Yearly
  High: Low: Average:
Temperature: 61.6 °F /  16.4 °C 43.3 °F /  6.3 °C 53.1 °F /  11.7 °C
Dew Point: 45.5 °F /  7.5 °C 38.8 °F /  3.8 °C 42.6 °F /  5.9 °C
Humidity: 87% 51% 68%
Wind Speed: 4.5mph /  7.2km/h - 0.2mph /  0.3km/h
Wind Gust: 12mph /  19.3km/h - -
Wind- - WNW
Pressure: 29.97 in /  1014.8 hPa 29.87 in /  1011.4 hPa -
Precipitation: 0.00 in /  0 mm    
 
 
Tabular Data for April 23, 2021
Time Temperature Dew Point Pressure Wind Wind Speed Wind Gust Humidity Rainfall Rate (Hourly) solar
00:00 53.8 °F /  12.1 °C 44.3 °F /  6.8 °C 29.90in /  1012.4hPa Calm   5mph /  8km/h 70% 0.00in /  0mm 0 W/m2
00:09 53.6 °F /  12 °C 44.3 °F /  6.8 °C 29.90in /  1012.4hPa Calm     70.6% 0.00in /  0mm 0 W/m2
00:14 53.5 °F /  11.9 °C 44.4 °F /  6.9 °C 29.90in /  1012.4hPa NW 0.8mph /  1.3km/h 5mph /  8km/h 71% 0.00in /  0mm 0 W/m2
00:19 53.5 °F /  11.9 °C 44.3 °F /  6.8 °C 29.90in /  1012.4hPa Calm   5mph /  8km/h 71% 0.00in /  0mm 0 W/m2
00:24 53.5 °F /  11.9 °C 44.3 °F /  6.8 °C 29.91in /  1012.8hPa Calm   5mph /  8km/h 71% 0.00in /  0mm 0 W/m2
00:29 53.5 °F /  11.9 °C 44.3 °F /  6.8 °C 29.91in /  1012.8hPa Calm   5mph /  8km/h 71% 0.00in /  0mm 0 W/m2
00:34 53.5 °F /  11.9 °C 44.4 °F /  6.9 °C 29.91in /  1012.8hPa Calm   5mph /  8km/h 71% 0.00in /  0mm 0 W/m2
00:39 53.6 °F /  12 °C 44.4 °F /  6.9 °C 29.91in /  1012.8hPa Calm     71% 0.00in /  0mm 0 W/m2
00:44 53.6 °F /  12 °C 44.5 °F /  6.9 °C 29.92in /  1013.1hPa Calm     71% 0.00in /  0mm 0 W/m2
00:49 53.7 °F /  12.1 °C 44.4 °F /  6.9 °C 29.92in /  1013.1hPa Calm     70.8% 0.00in /  0mm 0 W/m2
00:54 53.7 °F /  12.1 °C 44.2 °F /  6.8 °C 29.92in /  1013.1hPa Calm     70% 0.00in /  0mm 0 W/m2
00:59 53.7 °F /  12.1 °C 44 °F /  6.7 °C 29.92in /  1013.1hPa Calm     69.6% 0.00in /  0mm 0 W/m2
01:04 53.8 °F /  12.1 °C 44 °F /  6.7 °C 29.92in /  1013.1hPa Calm     69.4% 0.00in /  0mm 0 W/m2
01:09 53.8 °F /  12.1 °C 44 °F /  6.7 °C 29.92in /  1013.1hPa Calm     69.4% 0.00in /  0mm 0 W/m2
01:14 53.8 °F /  12.1 °C 43.9 °F /  6.6 °C 29.92in /  1013.1hPa Calm     69% 0.00in /  0mm 0 W/m2
01:19 53.8 °F /  12.1 °C 43.9 °F /  6.6 °C 29.92in /  1013.1hPa Calm     69% 0.00in /  0mm 0 W/m2
01:24 53.8 °F /  12.1 °C 43.9 °F /  6.6 °C 29.92in /  1013.1hPa Calm     69% 0.00in /  0mm 0 W/m2
01:29 53.8 °F /  12.1 °C 43.9 °F /  6.6 °C 29.92in /  1013.1hPa NW 0.5mph /  0.8km/h 4mph /  6.4km/h 69.1% 0.00in /  0mm 0 W/m2
01:34 53.7 °F /  12.1 °C 43.6 °F /  6.4 °C 29.91in /  1012.8hPa Calm   4mph /  6.4km/h 68.5% 0.00in /  0mm 0 W/m2
01:39 53.7 °F /  12.1 °C 43.5 °F /  6.4 °C 29.92in /  1013.1hPa Calm     68.2% 0.00in /  0mm 0 W/m2
01:44 53.6 °F /  12 °C 43.3 °F /  6.3 °C 29.92in /  1013.1hPa Calm   1mph /  1.6km/h 68% 0.00in /  0mm 0 W/m2
01:49 53.6 °F /  12 °C 42.8 °F /  6 °C 29.92in /  1013.1hPa Calm   1mph /  1.6km/h 66.9% 0.00in /  0mm 0 W/m2
01:54 53.5 °F /  11.9 °C 42.8 °F /  6 °C 29.92in /  1013.1hPa Calm   1mph /  1.6km/h 67% 0.00in /  0mm 0 W/m2
01:59 53.4 °F /  11.9 °C 42.8 °F /  6 °C 29.92in /  1013.1hPa Calm   1mph /  1.6km/h 67% 0.00in /  0mm 0 W/m2
02:04 53.3 °F /  11.8 °C 42.4 °F /  5.8 °C 29.91in /  1012.8hPa NNE 0.4mph /  0.6km/h 4mph /  6.4km/h 66.3% 0.00in /  0mm 0 W/m2
02:09 53.2 °F /  11.8 °C 41.8 °F /  5.4 °C 29.91in /  1012.8hPa NW 0.8mph /  1.3km/h 6mph /  9.7km/h 65% 0.00in /  0mm 0 W/m2
02:14 53.1 °F /  11.7 °C 41.4 °F /  5.2 °C 29.91in /  1012.8hPa NW 0.9mph /  1.4km/h 6mph /  9.7km/h 64.2% 0.00in /  0mm 0 W/m2
02:19 53 °F /  11.7 °C 41.4 °F /  5.2 °C 29.90in /  1012.4hPa Calm   6mph /  9.7km/h 64.5% 0.00in /  0mm 0 W/m2
02:24 52.8 °F /  11.6 °C 41 °F /  5 °C 29.90in /  1012.4hPa Calm   6mph /  9.7km/h 64% 0.00in /  0mm 0 W/m2
02:29 52.7 °F /  11.5 °C 41 °F /  5 °C 29.90in /  1012.4hPa Calm   6mph /  9.7km/h 64.3% 0.00in /  0mm 0 W/m2
02:34 52.6 °F /  11.4 °C 41.3 °F /  5.2 °C 29.90in /  1012.4hPa Calm   6mph /  9.7km/h 65.4% 0.00in /  0mm 0 W/m2
02:39 52.4 °F /  11.3 °C 41.4 °F /  5.2 °C 29.90in /  1012.4hPa Calm     66.2% 0.00in /  0mm 0 W/m2
02:44 52.2 °F /  11.2 °C 41.3 °F /  5.2 °C 29.90in /  1012.4hPa Calm   1mph /  1.6km/h 66.3% 0.00in /  0mm 0 W/m2
02:49 51.9 °F /  11.1 °C 41.3 °F /  5.2 °C 29.90in /  1012.4hPa Calm   1mph /  1.6km/h 66.8% 0.00in /  0mm 0 W/m2
02:54 51.7 °F /  10.9 °C 41.2 °F /  5.1 °C 29.90in /  1012.4hPa Calm   1mph /  1.6km/h 67% 0.00in /  0mm 0 W/m2
02:59 51.6 °F /  10.9 °C 40.8 °F /  4.9 °C 29.90in /  1012.4hPa Calm   1mph /  1.6km/h 66.5% 0.00in /  0mm 0 W/m2
03:04 51.5 °F /  10.8 °C 40.9 °F /  4.9 °C 29.90in /  1012.4hPa Calm   1mph /  1.6km/h 67% 0.00in /  0mm 0 W/m2
03:09 51.4 °F /  10.8 °C 40.5 °F /  4.7 °C 29.90in /  1012.4hPa Calm     66.1% 0.00in /  0mm 0 W/m2
03:14 51.4 °F /  10.8 °C 40.2 °F /  4.6 °C 29.90in /  1012.4hPa Calm     65.5% 0.00in /  0mm 0 W/m2
03:19 51.3 °F /  10.7 °C 40 °F /  4.4 °C 29.90in /  1012.4hPa Calm     65% 0.00in /  0mm 0 W/m2
03:24 51.3 °F /  10.7 °C 40 °F /  4.4 °C 29.90in /  1012.4hPa Calm   1mph /  1.6km/h 65.2% 0.00in /  0mm 0 W/m2
03:29 51.2 °F /  10.7 °C 39.9 °F /  4.4 °C 29.91in /  1012.8hPa Calm   1mph /  1.6km/h 65.2% 0.00in /  0mm 0 W/m2
03:34 51.2 °F /  10.7 °C 39.8 °F /  4.3 °C 29.91in /  1012.8hPa NW 0.2mph /  0.3km/h 6mph /  9.7km/h 65% 0.00in /  0mm 0 W/m2
03:39 51 °F /  10.6 °C 39.4 °F /  4.1 °C 29.91in /  1012.8hPa NW 0.7mph /  1.1km/h 6mph /  9.7km/h 64.3% 0.00in /  0mm 0 W/m2
03:44 50.8 °F /  10.4 °C 39.4 °F /  4.1 °C 29.92in /  1013.1hPa Calm   6mph /  9.7km/h 64.9% 0.00in /  0mm 0 W/m2
03:49 50.5 °F /  10.3 °C 39.6 °F /  4.2 °C 29.92in /  1013.1hPa Calm   6mph /  9.7km/h 66% 0.00in /  0mm 0 W/m2
03:54 50.3 °F /  10.2 °C 39.4 °F /  4.1 °C 29.92in /  1013.1hPa Calm   6mph /  9.7km/h 66.2% 0.00in /  0mm 0 W/m2
03:59 50 °F /  10 °C 39.5 °F /  4.2 °C 29.92in /  1013.1hPa Calm   6mph /  9.7km/h 67% 0.00in /  0mm 0 W/m2
04:00 49.8 °F /  9.9 °C 38.9 °F /  3.8 °C 29.92in /  1013.1hPa Calm   6mph /  9.7km/h 66% 0.00in /  0mm 0 W/m2
04:09 49.4 °F /  9.7 °C 39.1 °F /  3.9 °C 29.92in /  1013.1hPa Calm     67.3% 0.00in /  0mm 0 W/m2
04:14 49.2 °F /  9.6 °C 39.3 °F /  4.1 °C 29.93in /  1013.4hPa Calm     68.4% 0.00in /  0mm 0 W/m2
04:19 49 °F /  9.4 °C 39.1 °F /  3.9 °C 29.93in /  1013.4hPa Calm     68.6% 0.00in /  0mm 0 W/m2
04:24 48.8 °F /  9.3 °C 39.1 °F /  3.9 °C 29.93in /  1013.4hPa Calm     69% 0.00in /  0mm 0 W/m2
04:29 48.7 °F /  9.3 °C 39 °F /  3.9 °C 29.92in /  1013.1hPa Calm   1mph /  1.6km/h 69% 0.00in /  0mm 0 W/m2
04:34 48.5 °F /  9.2 °C 39.2 °F /  4 °C 29.92in /  1013.1hPa Calm   1mph /  1.6km/h 70% 0.00in /  0mm 0 W/m2
04:39 48.3 °F /  9.1 °C 39 °F /  3.9 °C 29.92in /  1013.1hPa Calm   1mph /  1.6km/h 70% 0.00in /  0mm 0 W/m2
04:44 48.1 °F /  8.9 °C 39.1 °F /  3.9 °C 29.92in /  1013.1hPa Calm   1mph /  1.6km/h 70.6% 0.00in /  0mm 0 W/m2
04:49 48 °F /  8.9 °C 39 °F /  3.9 °C 29.92in /  1013.1hPa Calm   1mph /  1.6km/h 71% 0.00in /  0mm 0 W/m2
04:54 47.8 °F /  8.8 °C 38.9 °F /  3.8 °C 29.92in /  1013.1hPa NW 0.3mph /  0.5km/h 4mph /  6.4km/h 71.2% 0.00in /  0mm 0 W/m2
04:59 47.6 °F /  8.7 °C 39 °F /  3.9 °C 29.92in /  1013.1hPa NW 0.6mph /  1km/h 5mph /  8km/h 72% 0.00in /  0mm 0 W/m2
05:04 47.4 °F /  8.6 °C 38.9 °F /  3.8 °C 29.92in /  1013.1hPa Calm   5mph /  8km/h 72% 0.00in /  0mm 0 W/m2
05:09 47.3 °F /  8.5 °C 39 °F /  3.9 °C 29.92in /  1013.1hPa Calm     72.8% 0.00in /  0mm 0 W/m2
05:14 47.2 °F /  8.4 °C 39 °F /  3.9 °C 29.92in /  1013.1hPa Calm     73% 0.00in /  0mm 0 W/m2
05:19 47 °F /  8.3 °C 39 °F /  3.9 °C 29.93in /  1013.4hPa Calm     73.6% 0.00in /  0mm 0 W/m2
05:24 46.9 °F /  8.3 °C 39.1 °F /  3.9 °C 29.93in /  1013.4hPa Calm     74% 0.00in /  0mm 0 W/m2
05:29 46.8 °F /  8.2 °C 38.9 °F /  3.8 °C 29.93in /  1013.4hPa Calm     74% 0.00in /  0mm 0 W/m2
05:34 46.6 °F /  8.1 °C 39.1 °F /  3.9 °C 29.93in /  1013.4hPa Calm     74.8% 0.00in /  0mm 0 W/m2
05:39 46.5 °F /  8.1 °C 39 °F /  3.9 °C 29.93in /  1013.4hPa Calm     75% 0.00in /  0mm 0 W/m2
05:44 46.4 °F /  8 °C 38.9 °F /  3.8 °C 29.93in /  1013.4hPa Calm     75% 0.00in /  0mm 0 W/m2
05:49 46.3 °F /  7.9 °C 38.8 °F /  3.8 °C 29.93in /  1013.4hPa Calm     75% 0.00in /  0mm 0 W/m2
05:54 46.1 °F /  7.8 °C 38.9 °F /  3.8 °C 29.93in /  1013.4hPa Calm     75.8% 0.00in /  0mm 0 W/m2
05:59 46 °F /  7.8 °C 38.9 °F /  3.8 °C 29.93in /  1013.4hPa Calm     76% 0.00in /  0mm 0 W/m2
06:04 45.9 °F /  7.7 °C 39 °F /  3.9 °C 29.93in /  1013.4hPa Calm   1mph /  1.6km/h 76.5% 0.00in /  0mm 0 W/m2
06:09 45.8 °F /  7.7 °C 39 °F /  3.9 °C 29.93in /  1013.4hPa Calm   1mph /  1.6km/h 77% 0.00in /  0mm 0 W/m2
06:14 45.7 °F /  7.6 °C 38.9 °F /  3.8 °C 29.93in /  1013.4hPa Calm   1mph /  1.6km/h 77% 0.00in /  0mm 0 W/m2
06:19 45.5 °F /  7.5 °C 39 °F /  3.9 °C 29.93in /  1013.4hPa Calm   1mph /  1.6km/h 77.8% 0.00in /  0mm 0 W/m2
06:24 45.4 °F /  7.4 °C 39 °F /  3.9 °C 29.93in /  1013.4hPa Calm   1mph /  1.6km/h 78% 0.00in /  0mm 0 W/m2
06:29 45.3 °F /  7.4 °C 38.8 °F /  3.8 °C 29.93in /  1013.4hPa Calm   1mph /  1.6km/h 78% 0.00in /  0mm 0 W/m2
06:34 45.1 °F /  7.3 °C 39 °F /  3.9 °C 29.93in /  1013.4hPa Calm   1mph /  1.6km/h 79% 0.00in /  0mm 0 W/m2
06:39 44.9 °F /  7.2 °C 38.9 °F /  3.8 °C 29.93in /  1013.4hPa Calm     79.4% 0.00in /  0mm 0 W/m2
06:44 44.6 °F /  7 °C 38.9 °F /  3.8 °C 29.93in /  1013.4hPa Calm     80.1% 0.00in /  0mm 0 W/m2
06:49 44.4 °F /  6.9 °C 39 °F /  3.9 °C 29.93in /  1013.4hPa Calm     81% 0.00in /  0mm 0 W/m2
06:54 44.3 °F /  6.8 °C 38.9 °F /  3.8 °C 29.93in /  1013.4hPa Calm     81.1% 0.00in /  0mm 0 W/m2
06:59 44.1 °F /  6.7 °C 39 °F /  3.9 °C 29.93in /  1013.4hPa Calm     82% 0.00in /  0mm 0 W/m2
07:04 44 °F /  6.7 °C 38.8 °F /  3.8 °C 29.93in /  1013.4hPa Calm     82% 0.00in /  0mm 0 W/m2
07:09 43.8 °F /  6.6 °C 38.8 °F /  3.8 °C 29.93in /  1013.4hPa Calm     82.2% 0.00in /  0mm 0 W/m2
07:14 43.7 °F /  6.5 °C 38.9 °F /  3.8 °C 29.93in /  1013.4hPa Calm     83% 0.00in /  0mm 0 W/m2
07:19 43.6 °F /  6.4 °C 38.8 °F /  3.8 °C 29.94in /  1013.8hPa Calm     83% 0.00in /  0mm 5 W/m2
07:24 43.6 °F /  6.4 °C 39 °F /  3.9 °C 29.94in /  1013.8hPa Calm     83.8% 0.00in /  0mm 9 W/m2
07:29 43.5 °F /  6.4 °C 39 °F /  3.9 °C 29.94in /  1013.8hPa Calm     84% 0.00in /  0mm 14 W/m2
07:34 43.4 °F /  6.3 °C 38.9 °F /  3.8 °C 29.94in /  1013.8hPa Calm     84% 0.00in /  0mm 23 W/m2
07:39 43.3 °F /  6.3 °C 39.1 °F /  3.9 °C 29.93in /  1013.4hPa Calm     84.8% 0.00in /  0mm 26 W/m2
07:44 43.3 °F /  6.3 °C 39.1 °F /  3.9 °C 29.93in /  1013.4hPa Calm     85% 0.00in /  0mm 28 W/m2
07:49 43.4 °F /  6.3 °C 39.4 °F /  4.1 °C 29.93in /  1013.4hPa Calm     85.5% 0.00in /  0mm 40 W/m2
07:54 43.5 °F /  6.4 °C 39.6 °F /  4.2 °C 29.93in /  1013.4hPa Calm     86% 0.00in /  0mm 62 W/m2
07:59 43.6 °F /  6.4 °C 39.7 °F /  4.3 °C 29.94in /  1013.8hPa Calm     86% 0.00in /  0mm 86 W/m2
08:00 43.7 °F /  6.5 °C 39.8 °F /  4.3 °C 29.94in /  1013.8hPa Calm     86% 0.00in /  0mm 86 W/m2
08:09 44 °F /  6.7 °C 40.2 °F /  4.6 °C 29.94in /  1013.8hPa Calm     86.4% 0.00in /  0mm 84 W/m2
08:14 44.3 °F /  6.8 °C 40.7 °F /  4.8 °C 29.95in /  1014.1hPa Calm     87% 0.00in /  0mm 109 W/m2
08:19 44.7 °F /  7.1 °C 41 °F /  5 °C 29.95in /  1014.1hPa Calm     87% 0.00in /  0mm 111 W/m2
08:24 45 °F /  7.2 °C 41.3 °F /  5.2 °C 29.95in /  1014.1hPa Calm     86.7% 0.00in /  0mm 95 W/m2
08:29 45.4 °F /  7.4 °C 41.5 °F /  5.3 °C 29.95in /  1014.1hPa Calm     86% 0.00in /  0mm 88 W/m2
08:34 45.9 °F /  7.7 °C 41.8 °F /  5.4 °C 29.95in /  1014.1hPa Calm   1mph /  1.6km/h 85.6% 0.00in /  0mm 88 W/m2
08:39 46.3 °F /  7.9 °C 41.9 °F /  5.5 °C 29.95in /  1014.1hPa Calm   1mph /  1.6km/h 84.8% 0.00in /  0mm 84 W/m2
08:44 46.7 °F /  8.2 °C 42 °F /  5.6 °C 29.95in /  1014.1hPa Calm   1mph /  1.6km/h 83.7% 0.00in /  0mm 81 W/m2
08:49 47 °F /  8.3 °C 42 °F /  5.6 °C 29.95in /  1014.1hPa Calm   1mph /  1.6km/h 82.5% 0.00in /  0mm 91 W/m2
08:54 47.4 °F /  8.6 °C 42.2 °F /  5.7 °C 29.95in /  1014.1hPa Calm   1mph /  1.6km/h 82% 0.00in /  0mm 144 W/m2
08:59 47.8 °F /  8.8 °C 42.5 °F /  5.8 °C 29.95in /  1014.1hPa Calm   1mph /  1.6km/h 81.8% 0.00in /  0mm 216 W/m2
09:04 48.4 °F /  9.1 °C 43 °F /  6.1 °C 29.95in /  1014.1hPa Calm   1mph /  1.6km/h 81.4% 0.00in /  0mm 309 W/m2
09:09 49.3 °F /  9.6 °C 43.4 °F /  6.3 °C 29.95in /  1014.1hPa Calm   1mph /  1.6km/h 79.9% 0.00in /  0mm 306 W/m2
09:14 49.9 °F /  9.9 °C 43.2 °F /  6.2 °C 29.95in /  1014.1hPa Calm   1mph /  1.6km/h 77.7% 0.00in /  0mm 181 W/m2
09:19 50.3 °F /  10.2 °C 43.2 °F /  6.2 °C 29.95in /  1014.1hPa Calm   1mph /  1.6km/h 76.4% 0.00in /  0mm 181 W/m2
09:24 50.5 °F /  10.3 °C 43.2 °F /  6.2 °C 29.95in /  1014.1hPa Calm   1mph /  1.6km/h 75.8% 0.00in /  0mm 137 W/m2
09:29 50.7 °F /  10.4 °C 43.1 °F /  6.2 °C 29.95in /  1014.1hPa Calm   1mph /  1.6km/h 75% 0.00in /  0mm 102 W/m2
09:34 50.7 °F /  10.4 °C 43.1 °F /  6.2 °C 29.95in /  1014.1hPa Calm   1mph /  1.6km/h 75% 0.00in /  0mm 193 W/m2
09:39 50.8 °F /  10.4 °C 43.1 °F /  6.2 °C 29.95in /  1014.1hPa Calm     75% 0.00in /  0mm 244 W/m2
09:44 50.9 °F /  10.5 °C 43 °F /  6.1 °C 29.95in /  1014.1hPa Calm     74.2% 0.00in /  0mm 264 W/m2
09:49 51.2 °F /  10.7 °C 43.2 °F /  6.2 °C 29.95in /  1014.1hPa Calm     74.2% 0.00in /  0mm 207 W/m2
09:54 51.4 °F /  10.8 °C 43.6 °F /  6.4 °C 29.95in /  1014.1hPa Calm   1mph /  1.6km/h 74.4% 0.00in /  0mm 146 W/m2
09:59 51.5 °F /  10.8 °C 43.1 °F /  6.2 °C 29.95in /  1014.1hPa Calm   1mph /  1.6km/h 73% 0.00in /  0mm 167 W/m2
10:04 51.5 °F /  10.8 °C 43.7 °F /  6.5 °C 29.95in /  1014.1hPa Calm   1mph /  1.6km/h 74.4% 0.00in /  0mm 178 W/m2
10:09 51.7 °F /  10.9 °C 44.4 °F /  6.9 °C 29.95in /  1014.1hPa Calm     76.1% 0.00in /  0mm 410 W/m2
10:14 52.3 °F /  11.3 °C 44.8 °F /  7.1 °C 29.95in /  1014.1hPa Calm   1mph /  1.6km/h 75.5% 0.00in /  0mm 738 W/m2
10:19 53.4 °F /  11.9 °C 44.8 °F /  7.1 °C 29.95in /  1014.1hPa Calm   1mph /  1.6km/h 72.6% 0.00in /  0mm 738 W/m2
10:24 53.8 °F /  12.1 °C 44.9 °F /  7.2 °C 29.95in /  1014.1hPa Calm   1mph /  1.6km/h 71.7% 0.00in /  0mm 163 W/m2
10:29 53.8 °F /  12.1 °C 44.2 °F /  6.8 °C 29.95in /  1014.1hPa Calm   1mph /  1.6km/h 70% 0.00in /  0mm 193 W/m2
10:34 53.5 °F /  11.9 °C 43.7 °F /  6.5 °C 29.95in /  1014.1hPa Calm   1mph /  1.6km/h 69.3% 0.00in /  0mm 193 W/m2
10:39 53.1 °F /  11.7 °C 43.4 °F /  6.3 °C 29.95in /  1014.1hPa Calm     69.3% 0.00in /  0mm 204 W/m2
10:44 52.9 °F /  11.6 °C 43.2 °F /  6.2 °C 29.95in /  1014.1hPa Calm     69.4% 0.00in /  0mm 202 W/m2
10:49 52.8 °F /  11.6 °C 43.2 °F /  6.2 °C 29.95in /  1014.1hPa Calm     70% 0.00in /  0mm 181 W/m2
10:54 52.6 °F /  11.4 °C 43.1 °F /  6.2 °C 29.95in /  1014.1hPa Calm     69.9% 0.00in /  0mm 192 W/m2
10:59 52.3 °F /  11.3 °C 42.9 °F /  6.1 °C 29.94in /  1013.8hPa Calm   1mph /  1.6km/h 70.1% 0.00in /  0mm 188 W/m2
11:04 52.3 °F /  11.3 °C 43.4 °F /  6.3 °C 29.94in /  1013.8hPa Calm   1mph /  1.6km/h 71.7% 0.00in /  0mm 232 W/m2
11:09 52.4 °F /  11.3 °C 43.4 °F /  6.3 °C 29.94in /  1013.8hPa Calm     71.2% 0.00in /  0mm 332 W/m2
11:14 52.7 °F /  11.5 °C 43.5 °F /  6.4 °C 29.93in /  1013.4hPa Calm     70.9% 0.00in /  0mm 424 W/m2
11:19 53.2 °F /  11.8 °C 44.3 °F /  6.8 °C 29.93in /  1013.4hPa Calm   1mph /  1.6km/h 71.5% 0.00in /  0mm 424 W/m2
11:24 53.9 °F /  12.2 °C 44.7 °F /  7.1 °C 29.93in /  1013.4hPa Calm   1mph /  1.6km/h 70.9% 0.00in /  0mm 292 W/m2
11:29 54.3 °F /  12.4 °C 43.9 °F /  6.6 °C 29.93in /  1013.4hPa Calm   1mph /  1.6km/h 67.8% 0.00in /  0mm 258 W/m2
11:34 54.5 °F /  12.5 °C 44 °F /  6.7 °C 29.93in /  1013.4hPa Calm   1mph /  1.6km/h 67.5% 0.00in /  0mm 260 W/m2
11:39 54.8 °F /  12.7 °C 44.6 °F /  7 °C 29.93in /  1013.4hPa Calm     68.4% 0.00in /  0mm 174 W/m2
11:44 54.8 °F /  12.7 °C 44 °F /  6.7 °C 29.93in /  1013.4hPa Calm     66.8% 0.00in /  0mm 304 W/m2
11:49 54.8 °F /  12.7 °C 44.2 °F /  6.8 °C 29.94in /  1013.8hPa Calm     67.5% 0.00in /  0mm 325 W/m2
11:54 54.8 °F /  12.7 °C 44.7 °F /  7.1 °C 29.94in /  1013.8hPa Calm     68.7% 0.00in /  0mm 274 W/m2
11:59 54.9 °F /  12.7 °C 45 °F /  7.2 °C 29.94in /  1013.8hPa Calm     69.1% 0.00in /  0mm 255 W/m2
12:00 55 °F /  12.8 °C 45.4 °F /  7.4 °C 29.93in /  1013.4hPa Calm     70% 0.00in /  0mm 241 W/m2
12:09 55.6 °F /  13.1 °C 44.6 °F /  7 °C 29.93in /  1013.4hPa Calm     66.5% 0.00in /  0mm 278 W/m2
12:14 55.8 °F /  13.2 °C 44.7 °F /  7.1 °C 29.93in /  1013.4hPa Calm     66.2% 0.00in /  0mm 223 W/m2
12:19 56 °F /  13.3 °C 44.6 °F /  7 °C 29.93in /  1013.4hPa Calm     65.4% 0.00in /  0mm 211 W/m2
12:24 55.9 °F /  13.3 °C 44.6 °F /  7 °C 29.93in /  1013.4hPa Calm     65.7% 0.00in /  0mm 274 W/m2
12:29 56 °F /  13.3 °C 44.6 °F /  7 °C 29.93in /  1013.4hPa Calm     65.6% 0.00in /  0mm 299 W/m2
12:34 56.2 °F /  13.4 °C 44.7 °F /  7.1 °C 29.92in /  1013.1hPa North 0.1mph /  0.2km/h 1mph /  1.6km/h 65.3% 0.00in /  0mm 246 W/m2
12:39 56.7 °F /  13.7 °C 44.9 °F /  7.2 °C 29.92in /  1013.1hPa NNW 0.2mph /  0.3km/h 1mph /  1.6km/h 64.5% 0.00in /  0mm 229 W/m2
12:44 57.3 °F /  14.1 °C 45 °F /  7.2 °C 29.91in /  1012.8hPa Calm   1mph /  1.6km/h 63.4% 0.00in /  0mm 332 W/m2
12:49 57.8 °F /  14.3 °C 44.7 °F /  7.1 °C 29.91in /  1012.8hPa Calm   1mph /  1.6km/h 61.6% 0.00in /  0mm 142 W/m2
12:54 58.2 °F /  14.6 °C 44.3 °F /  6.8 °C 29.91in /  1012.8hPa Calm   1mph /  1.6km/h 59.9% 0.00in /  0mm 144 W/m2
12:59 58.3 °F /  14.6 °C 44.4 °F /  6.9 °C 29.91in /  1012.8hPa West 0.2mph /  0.3km/h 2mph /  3.2km/h 59.8% 0.00in /  0mm 192 W/m2
13:04 58.5 °F /  14.7 °C 45.2 °F /  7.3 °C 29.91in /  1012.8hPa WSW 0.1mph /  0.2km/h 2mph /  3.2km/h 61.1% 0.00in /  0mm 146 W/m2
13:09 58.8 °F /  14.9 °C 45.3 °F /  7.4 °C 29.90in /  1012.4hPa West 0.1mph /  0.2km/h 2mph /  3.2km/h 60.8% 0.00in /  0mm 353 W/m2
13:14 59.1 °F /  15.1 °C 45.4 °F /  7.4 °C 29.89in /  1012.1hPa NW 0.1mph /  0.2km/h 2mph /  3.2km/h 60.6% 0.00in /  0mm 492 W/m2
13:19 59.4 °F /  15.2 °C 44.8 °F /  7.1 °C 29.90in /  1012.4hPa West 1.9mph /  3.1km/h 8mph /  12.9km/h 58.5% 0.00in /  0mm 492 W/m2
13:24 59.6 °F /  15.3 °C 44.6 °F /  7 °C 29.90in /  1012.4hPa WNW 0.6mph /  1km/h 8mph /  12.9km/h 57.6% 0.00in /  0mm 214 W/m2
13:29 59.8 °F /  15.4 °C 44.5 °F /  6.9 °C 29.90in /  1012.4hPa WNW 0.2mph /  0.3km/h 8mph /  12.9km/h 56.8% 0.00in /  0mm 214 W/m2
13:34 60.1 °F /  15.6 °C 44.4 °F /  6.9 °C 29.90in /  1012.4hPa WNW 3.3mph /  5.3km/h 12mph /  19.3km/h 56% 0.00in /  0mm 49 W/m2
13:39 60.2 °F /  15.7 °C 43.1 °F /  6.2 °C 29.90in /  1012.4hPa NW 1.4mph /  2.3km/h 12mph /  19.3km/h 53.3% 0.00in /  0mm 519 W/m2
13:44 60.3 °F /  15.7 °C 43.1 °F /  6.2 °C 29.89in /  1012.1hPa WNW 2.2mph /  3.5km/h 12mph /  19.3km/h 52.9% 0.00in /  0mm 443 W/m2
13:49 60.4 °F /  15.8 °C 43.4 °F /  6.3 °C 29.89in /  1012.1hPa WNW 1.9mph /  3.1km/h 12mph /  19.3km/h 53.4% 0.00in /  0mm 381 W/m2
13:54 60.5 °F /  15.8 °C 43.7 °F /  6.5 °C 29.89in /  1012.1hPa WNW 1.5mph /  2.4km/h 12mph /  19.3km/h 53.7% 0.00in /  0mm 381 W/m2
13:59 60.6 °F /  15.9 °C 43.7 °F /  6.5 °C 29.88in /  1011.7hPa NW 0.8mph /  1.3km/h 12mph /  19.3km/h 53.5% 0.00in /  0mm 223 W/m2
14:04 60.8 °F /  16 °C 43.1 °F /  6.2 °C 29.88in /  1011.7hPa West 2mph /  3.2km/h 12mph /  19.3km/h 52.2% 0.00in /  0mm 144 W/m2
14:09 60.9 °F /  16.1 °C 43.6 °F /  6.4 °C 29.88in /  1011.7hPa SSE 1.1mph /  1.8km/h 8mph /  12.9km/h 53% 0.00in /  0mm 178 W/m2
14:14 61 °F /  16.1 °C 44.5 °F /  6.9 °C 29.88in /  1011.7hPa NW 1.9mph /  3.1km/h 8mph /  12.9km/h 54.7% 0.00in /  0mm 186 W/m2
14:19 61.2 °F /  16.2 °C 43.6 °F /  6.4 °C 29.88in /  1011.7hPa NW 0.8mph /  1.3km/h 8mph /  12.9km/h 52.4% 0.00in /  0mm 185 W/m2
14:24 61.2 °F /  16.2 °C 43.1 °F /  6.2 °C 29.88in /  1011.7hPa WNW 3.4mph /  5.5km/h 9mph /  14.5km/h 51.4% 0.00in /  0mm 366 W/m2
14:29 61 °F /  16.1 °C 43.3 °F /  6.3 °C 29.88in /  1011.7hPa WNW 0.3mph /  0.5km/h 9mph /  14.5km/h 52% 0.00in /  0mm 322 W/m2
14:34 60.9 °F /  16.1 °C 43.3 °F /  6.3 °C 29.88in /  1011.7hPa NNW 1.4mph /  2.3km/h 9mph /  14.5km/h 52.2% 0.00in /  0mm 149 W/m2
14:39 60.8 °F /  16 °C 43.7 °F /  6.5 °C 29.87in /  1011.4hPa NNW 0.1mph /  0.2km/h 9mph /  14.5km/h 53.1% 0.00in /  0mm 123 W/m2
14:44 61 °F /  16.1 °C 44.1 °F /  6.7 °C 29.87in /  1011.4hPa NNW 0.2mph /  0.3km/h 9mph /  14.5km/h 53.6% 0.00in /  0mm 311 W/m2
14:49 61.2 °F /  16.2 °C 43.8 °F /  6.6 °C 29.87in /  1011.4hPa NW 1.8mph /  2.9km/h 9mph /  14.5km/h 52.6% 0.00in /  0mm 311 W/m2
14:54 61.2 °F /  16.2 °C 43.7 °F /  6.5 °C 29.87in /  1011.4hPa NW 1.9mph /  3.1km/h 9mph /  14.5km/h 52.5% 0.00in /  0mm 192 W/m2
14:59 61.3 °F /  16.3 °C 43.9 °F /  6.6 °C 29.87in /  1011.4hPa WNW 2.1mph /  3.4km/h 9mph /  14.5km/h 52.8% 0.00in /  0mm 192 W/m2
15:04 61.4 °F /  16.3 °C 43.9 °F /  6.6 °C 29.87in /  1011.4hPa WNW 0.2mph /  0.3km/h 9mph /  14.5km/h 52.6% 0.00in /  0mm 214 W/m2
15:09 61.5 °F /  16.4 °C 44.1 °F /  6.7 °C 29.87in /  1011.4hPa WNW 0.1mph /  0.2km/h 2mph /  3.2km/h 52.8% 0.00in /  0mm 156 W/m2
15:14 61.5 °F /  16.4 °C 43.7 °F /  6.5 °C 29.87in /  1011.4hPa Calm   2mph /  3.2km/h 52% 0.00in /  0mm 422 W/m2
15:19 61.5 °F /  16.4 °C 43.2 °F /  6.2 °C 29.87in /  1011.4hPa WSW 0.1mph /  0.2km/h 2mph /  3.2km/h 51% 0.00in /  0mm 366 W/m2
15:24 61.6 °F /  16.4 °C 44 °F /  6.7 °C 29.87in /  1011.4hPa WNW 0.1mph /  0.2km/h 2mph /  3.2km/h 52.3% 0.00in /  0mm 102 W/m2
15:29 61.4 °F /  16.3 °C 43.9 °F /  6.6 °C 29.87in /  1011.4hPa Calm   2mph /  3.2km/h 52.4% 0.00in /  0mm 100 W/m2
15:34 61.3 °F /  16.3 °C 43.8 °F /  6.6 °C 29.87in /  1011.4hPa WNW 0.1mph /  0.2km/h 2mph /  3.2km/h 52.6% 0.00in /  0mm 95 W/m2
15:39 61 °F /  16.1 °C 43.4 °F /  6.3 °C 29.87in /  1011.4hPa WNW 3.1mph /  5km/h 8mph /  12.9km/h 52.2% 0.00in /  0mm 74 W/m2
15:44 60.6 °F /  15.9 °C 42.6 °F /  5.9 °C 29.87in /  1011.4hPa WNW 2.4mph /  3.9km/h 8mph /  12.9km/h 51.4% 0.00in /  0mm 47 W/m2
15:49 60.3 °F /  15.7 °C 43 °F /  6.1 °C 29.87in /  1011.4hPa Calm   8mph /  12.9km/h 52.9% 0.00in /  0mm 91 W/m2
15:54 60.1 °F /  15.6 °C 43.4 °F /  6.3 °C 29.87in /  1011.4hPa Calm   8mph /  12.9km/h 54% 0.00in /  0mm 102 W/m2
15:59 60 °F /  15.6 °C 43.7 °F /  6.5 °C 29.87in /  1011.4hPa Calm   8mph /  12.9km/h 54.8% 0.00in /  0mm 88 W/m2
16:09 59.9 °F /  15.5 °C 43.3 °F /  6.3 °C 29.87in /  1011.4hPa NW 0.8mph /  1.3km/h 9mph /  14.5km/h 54.2% 0.00in /  0mm 63 W/m2
16:14 59.6 °F /  15.3 °C 42.7 °F /  5.9 °C 29.88in /  1011.7hPa WNW 4.5mph /  7.2km/h 9mph /  14.5km/h 53.4% 0.00in /  0mm 56 W/m2
16:19 59.4 °F /  15.2 °C 42.5 °F /  5.8 °C 29.88in /  1011.7hPa West 3mph /  4.8km/h 9mph /  14.5km/h 53.3% 0.00in /  0mm 54 W/m2
16:24 59.2 °F /  15.1 °C 42.5 °F /  5.8 °C 29.88in /  1011.7hPa WNW 1.9mph /  3.1km/h 9mph /  14.5km/h 53.9% 0.00in /  0mm 62 W/m2
16:29 59 °F /  15 °C 42.5 °F /  5.8 °C 29.88in /  1011.7hPa West 0.5mph /  0.8km/h 9mph /  14.5km/h 54.3% 0.00in /  0mm 53 W/m2
16:34 58.9 °F /  14.9 °C 42.7 °F /  5.9 °C 29.88in /  1011.7hPa WNW 0.7mph /  1.1km/h 9mph /  14.5km/h 54.9% 0.00in /  0mm 30 W/m2
16:39 58.7 °F /  14.8 °C 42.9 °F /  6.1 °C 29.88in /  1011.7hPa Calm   7mph /  11.3km/h 55.8% 0.00in /  0mm 37 W/m2
16:44 58.5 °F /  14.7 °C 42.9 °F /  6.1 °C 29.88in /  1011.7hPa Calm   7mph /  11.3km/h 56% 0.00in /  0mm 49 W/m2
16:49 58.4 °F /  14.7 °C 42.9 °F /  6.1 °C 29.89in /  1012.1hPa Calm   7mph /  11.3km/h 56.3% 0.00in /  0mm 53 W/m2
16:54 58.4 °F /  14.7 °C 43.2 °F /  6.2 °C 29.89in /  1012.1hPa WNW 0.1mph /  0.2km/h 7mph /  11.3km/h 57% 0.00in /  0mm 51 W/m2
16:59 58.3 °F /  14.6 °C 43.1 °F /  6.2 °C 29.89in /  1012.1hPa Calm   7mph /  11.3km/h 57% 0.00in /  0mm 47 W/m2
17:04 58.3 °F /  14.6 °C 43.6 °F /  6.4 °C 29.89in /  1012.1hPa Calm     58% 0.00in /  0mm 39 W/m2
17:09 58.2 °F /  14.6 °C 43.5 °F /  6.4 °C 29.89in /  1012.1hPa Calm     58% 0.00in /  0mm 37 W/m2
17:14 58.2 °F /  14.6 °C 43.8 °F /  6.6 °C 29.90in /  1012.4hPa Calm     58.7% 0.00in /  0mm 26 W/m2
17:19 58.2 °F /  14.6 °C 43.9 °F /  6.6 °C 29.90in /  1012.4hPa Calm     59% 0.00in /  0mm 23 W/m2
17:24 58.1 °F /  14.5 °C 43.8 °F /  6.6 °C 29.90in /  1012.4hPa Calm   1mph /  1.6km/h 59% 0.00in /  0mm 19 W/m2
17:29 57.9 °F /  14.4 °C 43.9 °F /  6.6 °C 29.90in /  1012.4hPa Calm   1mph /  1.6km/h 59.4% 0.00in /  0mm 18 W/m2
17:34 57.8 °F /  14.3 °C 43.6 °F /  6.4 °C 29.91in /  1012.8hPa West 2.6mph /  4.2km/h 6mph /  9.7km/h 59.2% 0.00in /  0mm 11 W/m2
17:39 57.6 °F /  14.2 °C 43.5 °F /  6.4 °C 29.91in /  1012.8hPa Calm   6mph /  9.7km/h 59.2% 0.00in /  0mm 9 W/m2
17:44 57.5 °F /  14.2 °C 43.3 °F /  6.3 °C 29.91in /  1012.8hPa Calm   6mph /  9.7km/h 59% 0.00in /  0mm 7 W/m2
17:49 57.3 °F /  14.1 °C 43.4 °F /  6.3 °C 29.91in /  1012.8hPa Calm   6mph /  9.7km/h 59.6% 0.00in /  0mm 5 W/m2
17:54 57.2 °F /  14 °C 43.6 °F /  6.4 °C 29.91in /  1012.8hPa Calm   6mph /  9.7km/h 60.3% 0.00in /  0mm 0 W/m2
17:59 57.1 °F /  13.9 °C 43.3 °F /  6.3 °C 29.91in /  1012.8hPa Calm   6mph /  9.7km/h 60% 0.00in /  0mm 0 W/m2
18:04 56.9 °F /  13.8 °C 43.3 °F /  6.3 °C 29.91in /  1012.8hPa Calm   6mph /  9.7km/h 60.2% 0.00in /  0mm 0 W/m2
18:09 56.8 °F /  13.8 °C 43.3 °F /  6.3 °C 29.91in /  1012.8hPa Calm     60.6% 0.00in /  0mm 0 W/m2
18:14 56.6 °F /  13.7 °C 43.4 °F /  6.3 °C 29.91in /  1012.8hPa Calm     61% 0.00in /  0mm 0 W/m2
18:19 56.5 °F /  13.6 °C 43.4 °F /  6.3 °C 29.91in /  1012.8hPa Calm     61.3% 0.00in /  0mm 0 W/m2
18:24 56.4 °F /  13.6 °C 43.5 °F /  6.4 °C 29.92in /  1013.1hPa Calm     62% 0.00in /  0mm 0 W/m2
18:29 56.2 °F /  13.4 °C 43.4 °F /  6.3 °C 29.92in /  1013.1hPa Calm     62% 0.00in /  0mm 0 W/m2
18:34 56.1 °F /  13.4 °C 43.5 °F /  6.4 °C 29.92in /  1013.1hPa Calm     62.5% 0.00in /  0mm 0 W/m2
18:39 56 °F /  13.3 °C 43.5 °F /  6.4 °C 29.92in /  1013.1hPa Calm     62.7% 0.00in /  0mm 0 W/m2
18:44 55.9 °F /  13.3 °C 43.6 °F /  6.4 °C 29.92in /  1013.1hPa Calm     63.3% 0.00in /  0mm 0 W/m2
18:49 55.9 °F /  13.3 °C 43.9 °F /  6.6 °C 29.92in /  1013.1hPa Calm     64% 0.00in /  0mm 0 W/m2
18:54 55.8 °F /  13.2 °C 43.8 °F /  6.6 °C 29.93in /  1013.4hPa Calm     64% 0.00in /  0mm 0 W/m2
18:59 55.7 °F /  13.2 °C 44 °F /  6.7 °C 29.93in /  1013.4hPa Calm     64.6% 0.00in /  0mm 0 W/m2
19:04 55.7 °F /  13.2 °C 44.1 °F /  6.7 °C 29.92in /  1013.1hPa Calm     65.1% 0.00in /  0mm 0 W/m2
19:09 55.6 °F /  13.1 °C 44.3 °F /  6.8 °C 29.93in /  1013.4hPa Calm     65.8% 0.00in /  0mm 0 W/m2
19:14 55.5 °F /  13.1 °C 44.2 °F /  6.8 °C 29.93in /  1013.4hPa Calm     65.7% 0.00in /  0mm 0 W/m2
19:19 55.4 °F /  13 °C 44.2 °F /  6.8 °C 29.93in /  1013.4hPa Calm     66% 0.00in /  0mm 0 W/m2
19:24 55.3 °F /  12.9 °C 44.1 °F /  6.7 °C 29.92in /  1013.1hPa Calm   1mph /  1.6km/h 66% 0.00in /  0mm 0 W/m2
19:29 55.2 °F /  12.9 °C 44.3 °F /  6.8 °C 29.92in /  1013.1hPa Calm   1mph /  1.6km/h 66.6% 0.00in /  0mm 0 W/m2
19:34 55.1 °F /  12.8 °C 44.1 °F /  6.7 °C 29.92in /  1013.1hPa Calm   1mph /  1.6km/h 66.4% 0.00in /  0mm 0 W/m2
19:39 55 °F /  12.8 °C 44.1 °F /  6.7 °C 29.93in /  1013.4hPa Calm     66.7% 0.00in /  0mm 0 W/m2
19:44 55 °F /  12.8 °C 44.1 °F /  6.7 °C 29.93in /  1013.4hPa Calm     66.6% 0.00in /  0mm 0 W/m2
19:49 54.9 °F /  12.7 °C 44.2 °F /  6.8 °C 29.93in /  1013.4hPa Calm     67% 0.00in /  0mm 0 W/m2
19:54 54.8 °F /  12.7 °C 44 °F /  6.7 °C 29.94in /  1013.8hPa NW 0.1mph /  0.2km/h 1mph /  1.6km/h 66.8% 0.00in /  0mm 0 W/m2
19:59 54.8 °F /  12.7 °C 43.7 °F /  6.5 °C 29.94in /  1013.8hPa NNW 0.1mph /  0.2km/h 1mph /  1.6km/h 66% 0.00in /  0mm 0 W/m2
20:09 54.6 °F /  12.6 °C 43.4 °F /  6.3 °C 29.93in /  1013.4hPa NNW 0.1mph /  0.2km/h 1mph /  1.6km/h 65.8% 0.00in /  0mm 0 W/m2
20:14 54.6 °F /  12.6 °C 43.1 °F /  6.2 °C 29.93in /  1013.4hPa NNW 0.1mph /  0.2km/h 1mph /  1.6km/h 65% 0.00in /  0mm 0 W/m2
20:19 54.5 °F /  12.5 °C 43 °F /  6.1 °C 29.93in /  1013.4hPa NNW 0.1mph /  0.2km/h 1mph /  1.6km/h 65% 0.00in /  0mm 0 W/m2
20:24 54.4 °F /  12.4 °C 42.9 °F /  6.1 °C 29.93in /  1013.4hPa Calm   1mph /  1.6km/h 65% 0.00in /  0mm 0 W/m2
20:29 54.3 °F /  12.4 °C 42.8 °F /  6 °C 29.93in /  1013.4hPa NW 0.1mph /  0.2km/h 1mph /  1.6km/h 65% 0.00in /  0mm 0 W/m2
20:34 54.3 °F /  12.4 °C 42.9 °F /  6.1 °C 29.93in /  1013.4hPa Calm   1mph /  1.6km/h 65.3% 0.00in /  0mm 0 W/m2
20:39 54.2 °F /  12.3 °C 42.9 °F /  6.1 °C 29.93in /  1013.4hPa NW 0.9mph /  1.4km/h 7mph /  11.3km/h 65.4% 0.00in /  0mm 0 W/m2
20:44 54.1 °F /  12.3 °C 42.6 °F /  5.9 °C 29.94in /  1013.8hPa NNW 0.6mph /  1km/h 7mph /  11.3km/h 65% 0.00in /  0mm 0 W/m2
20:49 54 °F /  12.2 °C 42.6 °F /  5.9 °C 29.94in /  1013.8hPa NW 1.9mph /  3.1km/h 10mph /  16.1km/h 65.3% 0.00in /  0mm 0 W/m2
20:54 53.9 °F /  12.2 °C 42.4 °F /  5.8 °C 29.94in /  1013.8hPa Calm   10mph /  16.1km/h 65% 0.00in /  0mm 0 W/m2
20:59 53.8 °F /  12.1 °C 42.6 °F /  5.9 °C 29.94in /  1013.8hPa North 0.1mph /  0.2km/h 10mph /  16.1km/h 65.7% 0.00in /  0mm 0 W/m2
21:04 53.7 °F /  12.1 °C 42.4 °F /  5.8 °C 29.94in /  1013.8hPa Calm   10mph /  16.1km/h 65.4% 0.00in /  0mm 0 W/m2
21:09 53.6 °F /  12 °C 42.3 °F /  5.7 °C 29.94in /  1013.8hPa Calm   1mph /  1.6km/h 65.4% 0.00in /  0mm 0 W/m2
21:14 53.5 °F /  11.9 °C 42.4 °F /  5.8 °C 29.94in /  1013.8hPa North 0.1mph /  0.2km/h 1mph /  1.6km/h 65.8% 0.00in /  0mm 0 W/m2
21:19 53.4 °F /  11.9 °C 42.4 °F /  5.8 °C 29.95in /  1014.1hPa Calm   1mph /  1.6km/h 66% 0.00in /  0mm 0 W/m2
21:24 53.4 °F /  11.9 °C 42.4 °F /  5.8 °C 29.95in /  1014.1hPa Calm   1mph /  1.6km/h 66.1% 0.00in /  0mm 0 W/m2
21:29 53.3 °F /  11.8 °C 42.4 °F /  5.8 °C 29.95in /  1014.1hPa Calm   1mph /  1.6km/h 66.5% 0.00in /  0mm 0 W/m2
21:34 53.2 °F /  11.8 °C 42.4 °F /  5.8 °C 29.95in /  1014.1hPa Calm   1mph /  1.6km/h 66.5% 0.00in /  0mm 0 W/m2
21:39 53.2 °F /  11.8 °C 42.5 °F /  5.8 °C 29.95in /  1014.1hPa Calm     67% 0.00in /  0mm 0 W/m2
21:44 53.2 °F /  11.8 °C 42.8 °F /  6 °C 29.95in /  1014.1hPa Calm     67.7% 0.00in /  0mm 0 W/m2
21:49 53.1 °F /  11.7 °C 43.4 °F /  6.3 °C 29.95in /  1014.1hPa Calm     69.6% 0.00in /  0mm 0 W/m2
21:54 53.1 °F /  11.7 °C 43.7 °F /  6.5 °C 29.95in /  1014.1hPa Calm     70.2% 0.00in /  0mm 0 W/m2
21:59 53 °F /  11.7 °C 43.9 °F /  6.6 °C 29.96in /  1014.4hPa Calm     71% 0.00in /  0mm 0 W/m2
22:04 52.9 °F /  11.6 °C 43.8 °F /  6.6 °C 29.96in /  1014.4hPa Calm     71% 0.00in /  0mm 0 W/m2
22:09 52.8 °F /  11.6 °C 43.6 °F /  6.4 °C 29.96in /  1014.4hPa Calm     70.9% 0.00in /  0mm 0 W/m2
22:14 52.7 °F /  11.5 °C 43 °F /  6.1 °C 29.96in /  1014.4hPa Calm     69.4% 0.00in /  0mm 0 W/m2
22:19 52.6 °F /  11.4 °C 42.7 °F /  5.9 °C 29.96in /  1014.4hPa Calm     68.9% 0.00in /  0mm 0 W/m2
22:24 52.6 °F /  11.4 °C 42.6 °F /  5.9 °C 29.96in /  1014.4hPa Calm   1mph /  1.6km/h 68.8% 0.00in /  0mm 0 W/m2
22:29 52.6 °F /  11.4 °C 42.7 °F /  5.9 °C 29.96in /  1014.4hPa Calm   1mph /  1.6km/h 69% 0.00in /  0mm 0 W/m2
22:34 52.5 °F /  11.4 °C 42.6 °F /  5.9 °C 29.96in /  1014.4hPa Calm   1mph /  1.6km/h 69% 0.00in /  0mm 0 W/m2
22:39 52.5 °F /  11.4 °C 42.8 °F /  6 °C 29.96in /  1014.4hPa Calm     69.4% 0.00in /  0mm 0 W/m2
22:44 52.4 °F /  11.3 °C 42.9 °F /  6.1 °C 29.96in /  1014.4hPa Calm     69.8% 0.00in /  0mm 0 W/m2
22:49 52.4 °F /  11.3 °C 43 °F /  6.1 °C 29.96in /  1014.4hPa Calm     70.2% 0.00in /  0mm 0 W/m2
22:54 52.3 °F /  11.3 °C 43 °F /  6.1 °C 29.96in /  1014.4hPa Calm     70.6% 0.00in /  0mm 0 W/m2
22:59 52.3 °F /  11.3 °C 43.4 °F /  6.3 °C 29.96in /  1014.4hPa Calm     71.8% 0.00in /  0mm 0 W/m2
23:04 52.2 °F /  11.2 °C 43.6 °F /  6.4 °C 29.96in /  1014.4hPa Calm     72.4% 0.00in /  0mm 0 W/m2
23:09 52.1 °F /  11.2 °C 43.7 °F /  6.5 °C 29.96in /  1014.4hPa Calm     73% 0.00in /  0mm 0 W/m2
23:14 52 °F /  11.1 °C 44 °F /  6.7 °C 29.96in /  1014.4hPa Calm     74% 0.00in /  0mm 0 W/m2
23:19 51.9 °F /  11.1 °C 44.4 °F /  6.9 °C 29.96in /  1014.4hPa Calm     75.5% 0.00in /  0mm 0 W/m2
23:24 51.8 °F /  11 °C 44.5 °F /  6.9 °C 29.96in /  1014.4hPa Calm     76% 0.00in /  0mm 0 W/m2
23:29 51.7 °F /  10.9 °C 44.7 °F /  7.1 °C 29.96in /  1014.4hPa Calm     77% 0.00in /  0mm 0 W/m2
23:34 51.5 °F /  10.8 °C 44.7 °F /  7.1 °C 29.96in /  1014.4hPa Calm     77.4% 0.00in /  0mm 0 W/m2
23:39 51.4 °F /  10.8 °C 45.1 °F /  7.3 °C 29.96in /  1014.4hPa Calm     78.9% 0.00in /  0mm 0 W/m2
23:44 51.3 °F /  10.7 °C 45.4 °F /  7.4 °C 29.96in /  1014.4hPa Calm     80.2% 0.00in /  0mm 0 W/m2
23:49 51.1 °F /  10.6 °C 45.5 °F /  7.5 °C 29.96in /  1014.4hPa Calm     81% 0.00in /  0mm 0 W/m2
23:54 50.9 °F /  10.5 °C 45.4 °F /  7.4 °C 29.97in /  1014.8hPa Calm     81.5% 0.00in /  0mm 0 W/m2
23:59 50.7 °F /  10.4 °C 45.5 °F /  7.5 °C 29.97in /  1014.8hPa Calm     82% 0.00in /  0mm 0 W/m2
Hartford County Weather
Compliments of Weather Underground - 2 mb